Time;durP1;ratioP1;P1;durP2;ratioP2;P2;SDS_P1;SDS_P2;PMS_P1;PMS_P2;Temp;Humidity;BMP_temperature;BMP_pressure;BME280_temperature;BME280_humidity;BME280_pressure;Samples;Min_cycle;Max_cycle;Signal;HPM_P1;HPM_P2
2021/06/23 16:04:18;;;;;;;;;;;;;;;6.24;96.41;99622.28;6225229;23;19981;-91
2021/06/23 16:15:20;;;;;;;;;;;;;;;6.06;97.79;99613.09;6253759;22;19919;-92
2021/06/23 16:22:45;;;;;;;;;;;;;;;6.24;95.90;99611.78;6247352;22;19985;-90
2021/06/23 16:25:16;;;;;;;;;;;;;;;6.17;97.60;99613.72;6249841;23;19925;-91
2021/06/23 16:27:45;;;;;;;;;;;;;;;6.25;95.67;99610.84;6249322;23;19916;-90
2021/06/23 16:30:10;;;;;;;;;;;;;;;6.12;95.95;99604.22;6248812;23;20292;-90
2021/06/23 16:32:51;;;;;;;;;;;;;;;;;;;;;
2021/06/23 16:35:20;;;;;;;;;;;;;;;6.31;99.42;99602.78;6249814;23;19983;-90
2021/06/23 16:37:46;;;;;;;;;;;;;;;6.19;95.72;99605.78;6222993;23;19999;-91
2021/06/23 16:40:13;;;;;;;;;;;;;;;6.26;95.36;99604.69;6222989;23;19915;-91
2021/06/23 16:42:38;;;;;;;;;;;;;;;6.07;96.40;99612.22;6248701;22;19939;-90
2021/06/23 16:45:07;;;;;;;;;;;;;;;6.07;97.33;99609.59;6251005;23;20323;-89
2021/06/23 16:47:43;;;;;;;;;;;;;;;;;;;;;
2021/06/23 16:50:21;;;;;;;;;;;;;;;;;;;;;
2021/06/23 16:53:00;;;;;;;;;;;;;;;;;;;;;
2021/06/23 16:59:00;;;;;;;;;;;;;;;6.39;98.20;99631.50;6235787;22;19923;-90
2021/06/23 17:01:57;;;;;;;;;;;;;;;6.31;96.65;99633.50;6248124;22;20219;-90
2021/06/23 17:04:23;;;;;;;;;;;;;;;6.24;97.23;99634.56;6222747;22;19923;-90
2021/06/23 17:07:06;;;;;;;;;;;;;;;6.40;95.98;99628.00;6222507;23;19916;-93
2021/06/23 17:09:52;;;;;;;;;;;;;;;6.39;95.45;99641.19;6249945;22;19919;-91
2021/06/23 17:12:17;;;;;;;;;;;;;;;6.30;95.39;99639.66;6223345;23;19991;-91
2021/06/23 17:15:03;;;;;;;;;;;;;;;6.35;96.32;99641.28;6224711;23;19919;-91
2021/06/23 17:17:37;;;;;;;;;;;;;;;6.31;96.45;99638.78;6179335;22;19911;-91
2021/06/23 17:20:08;;;;;;;;;;;;;;;6.20;97.14;99641.69;6221822;22;19912;-91
2021/06/23 17:22:47;;;;;;;;;;;;;;;;;;;;;
2021/06/23 17:25:15;;;;;;;;;;;;;;;6.39;98.99;99649.09;6277665;22;19968;-91
2021/06/23 17:27:43;;;;;;;;;;;;;;;6.34;97.38;99651.84;6254202;22;19916;-89
2021/06/23 17:30:47;;;;;;;;;;;;;;;;;;;;;
2021/06/23 17:33:13;;;;;;;;;;;;;;;6.52;98.88;99647.81;6278920;22;20289;-90
2021/06/23 17:36:02;;;;;;;;;;;;;;;6.26;98.20;99657.31;6253507;22;19926;-91
2021/06/23 17:38:31;;;;;;;;;;;;;;;6.47;98.42;99650.59;6254250;22;19915;-90
2021/06/23 17:41:04;;;;;;;;;;;;;;;6.31;97.99;99647.50;6278793;22;19981;-91
2021/06/23 17:43:36;;;;;;;;;;;;;;;6.43;97.98;99653.34;6253399;22;20029;-90
2021/06/23 17:46:17;;;;;;;;;;;;;;;6.36;96.63;99652.66;6279743;22;19921;-90
2021/06/23 17:48:45;;;;;;;;;;;;;;;6.43;98.47;99648.06;6281028;22;19916;-90
2021/06/23 17:51:34;;;;;;;;;;;;;;;6.57;96.05;99645.06;6280050;22;20288;-90
2021/06/23 17:53:59;;;;;;;;;;;;;;;6.58;99.35;99641.53;6278973;22;19958;-89
2021/06/23 17:56:25;;;;;;;;;;;;;;;6.57;96.87;99638.03;6279678;22;19976;-89
2021/06/23 17:58:50;;;;;;;;;;;;;;;6.59;99.08;99644.13;6280937;22;19986;-90
2021/06/23 18:01:27;;;;;;;;;;;;;;;6.57;98.44;99645.91;6279383;22;20200;-89
2021/06/23 18:08:45;;;;;;;;;;;;;;;6.49;97.94;99658.44;6280894;22;19915;-91
2021/06/23 18:11:13;;;;;;;;;;;;;;;6.40;99.33;99658.69;6279932;22;19942;-89
2021/06/23 18:13:59;;;;;;;;;;;;;;;6.37;97.47;99659.66;6253271;22;19919;-91
2021/06/23 18:16:29;;;;;;;;;;;;;;;6.34;99.07;99660.59;6253980;22;19977;-89
2021/06/23 18:18:57;;;;;;;;;;;;;;;6.38;97.65;99656.09;6281606;22;19912;-89
2021/06/23 18:21:25;;;;;;;;;;;;;;;6.41;97.11;99655.16;6282366;22;19990;-90
2021/06/23 18:23:58;;;;;;;;;;;;;;;6.34;98.64;99659.75;6282089;22;19982;-90
2021/06/23 18:26:42;;;;;;;;;;;;;;;6.52;97.93;99658.34;6286817;22;19941;-92
2021/06/23 18:29:08;;;;;;;;;;;;;;;6.47;97.68;99661.09;6255069;22;19915;-90
2021/06/23 18:31:36;;;;;;;;;;;;;;;6.29;98.09;99666.91;6254654;22;19915;-91
2021/06/23 18:34:02;;;;;;;;;;;;;;;6.28;100.00;99670.44;6282635;22;19916;-91
2021/06/23 18:36:29;;;;;;;;;;;;;;;6.67;100.00;99672.84;6256961;22;19939;-90
2021/06/23 18:38:55;;;;;;;;;;;;;;;6.50;100.00;99675.97;6283772;22;19920;-89
2021/06/23 18:47:03;;;;;;;;;;;;;;;;;;;;;
2021/06/23 18:52:37;;;;;;;;;;;;;;;;;;;;;
2021/06/23 19:15:47;;;;;;;;;;;;;;;6.47;98.38;99649.72;6287177;22;19917;-91
2021/06/23 19:18:12;;;;;;;;;;;;;;;6.24;96.00;99645.09;6280821;22;19941;-90
2021/06/23 19:20:53;;;;;;;;;;;;;;;;;;;;;
2021/06/23 19:23:27;;;;;;;;;;;;;;;6.32;96.84;99641.34;6272961;22;19935;-90
2021/06/23 19:25:52;;;;;;;;;;;;;;;6.08;97.78;99645.53;6281293;22;20045;-90
2021/06/23 19:28:22;;;;;;;;;;;;;;;6.12;97.64;99643.66;6281995;22;19915;-90
2021/06/23 19:30:54;;;;;;;;;;;;;;;6.09;98.13;99633.22;6281343;22;19923;-90
2021/06/23 19:33:54;;;;;;;;;;;;;;;6.19;97.83;99647.88;6281223;22;19926;-90
2021/06/23 19:36:17;;;;;;;;;;;;;;;6.16;97.63;99655.84;6274666;22;20252;-90
2021/06/23 19:38:43;;;;;;;;;;;;;;;6.09;96.63;99657.75;6280337;22;19943;-89
2021/06/23 19:41:09;;;;;;;;;;;;;;;6.12;97.20;99651.56;6254998;22;20207;-90
2021/06/23 19:43:43;;;;;;;;;;;;;;;6.14;97.59;99648.00;6282611;22;19922;-90
2021/06/23 19:46:09;;;;;;;;;;;;;;;6.08;97.62;99642.00;6282234;22;19979;-90
2021/06/23 19:49:17;;;;;;;;;;;;;;;;;;;;;
2021/06/23 19:51:51;;;;;;;;;;;;;;;;;;;;;
2021/06/23 19:54:37;;;;;;;;;;;;;;;6.36;96.38;99653.50;6283311;22;19947;-91
2021/06/23 19:57:03;;;;;;;;;;;;;;;6.06;96.90;99654.34;6254754;22;19939;-90
2021/06/23 19:59:38;;;;;;;;;;;;;;;;;;;;;
2021/06/23 20:02:07;;;;;;;;;;;;;;;6.06;96.80;99662.25;6284075;22;19930;-90
2021/06/23 20:04:50;;;;;;;;;;;;;;;6.18;95.99;99670.66;6256556;22;19946;-92
2021/06/23 20:07:18;;;;;;;;;;;;;;;6.09;96.68;99664.78;6284782;22;19943;-90
2021/06/23 20:09:55;;;;;;;;;;;;;;;6.15;96.27;99669.91;6288296;22;19926;-92
2021/06/23 20:12:20;;;;;;;;;;;;;;;6.30;94.92;99668.59;6257980;22;19922;-91
2021/06/23 20:14:58;;;;;;;;;;;;;;;6.18;96.16;99670.66;6256694;22;19915;-91
2021/06/23 20:17:30;;;;;;;;;;;;;;;6.02;97.05;99673.75;6281661;22;20269;-90
2021/06/23 20:19:56;;;;;;;;;;;;;;;6.12;96.68;99675.22;6283059;22;19916;-91
2021/06/23 20:22:34;;;;;;;;;;;;;;;6.14;96.25;99668.16;6283424;22;20204;-90
2021/06/23 20:25:01;;;;;;;;;;;;;;;6.13;95.99;99676.97;6254372;22;19915;-90
2021/06/23 20:27:27;;;;;;;;;;;;;;;6.07;95.64;99677.13;6256322;22;19969;-90
2021/06/23 20:29:59;;;;;;;;;;;;;;;5.97;96.74;99677.38;6282912;22;19923;-90
2021/06/23 20:32:25;;;;;;;;;;;;;;;6.07;96.49;99672.72;6253335;22;19986;-90
2021/06/23 20:35:11;;;;;;;;;;;;;;;6.03;96.80;99680.72;6280558;22;19915;-91
2021/06/23 20:37:50;;;;;;;;;;;;;;;6.04;96.67;99677.22;6280705;22;19915;-90
2021/06/23 20:40:17;;;;;;;;;;;;;;;6.15;96.27;99690.94;6260337;22;20357;-89
2021/06/23 20:42:48;;;;;;;;;;;;;;;6.03;96.48;99686.00;6280431;22;19949;-90
2021/06/23 20:45:13;;;;;;;;;;;;;;;6.04;96.33;99696.47;6254330;22;19986;-90
2021/06/23 20:48:00;;;;;;;;;;;;;;;6.25;95.23;99700.31;6253601;22;20208;-90
2021/06/23 20:50:45;;;;;;;;;;;;;;;6.24;95.63;99709.13;6278652;22;19919;-90
2021/06/23 20:53:13;;;;;;;;;;;;;;;6.21;95.45;99719.72;6278742;22;19984;-90
2021/06/23 20:55:41;;;;;;;;;;;;;;;6.00;96.73;99722.00;6281034;22;19915;-90
2021/06/23 20:58:10;;;;;;;;;;;;;;;6.21;97.13;99726.75;6282037;22;19945;-91
2021/06/23 21:03:15;;;;;;;;;;;;;;;6.11;96.01;99757.69;6251045;22;20205;-91
2021/06/23 21:05:41;;;;;;;;;;;;;;;6.34;95.32;99760.59;6249602;23;20200;-90
2021/06/23 21:08:07;;;;;;;;;;;;;;;6.20;94.97;99762.72;6227210;22;19923;-91
2021/06/23 21:10:33;;;;;;;;;;;;;;;6.28;96.32;99765.16;6254312;22;19919;-90
2021/06/23 21:13:04;;;;;;;;;;;;;;;6.16;96.13;99783.00;6258771;22;19915;-91
2021/06/23 21:15:30;;;;;;;;;;;;;;;6.35;96.89;99780.75;6256812;22;19915;-90
2021/06/23 21:18:16;;;;;;;;;;;;;;;6.32;96.25;99779.97;6256820;22;19986;-92
2021/06/23 21:21:00;;;;;;;;;;;;;;;6.13;96.58;99792.72;6261499;22;19915;-90
2021/06/23 21:23:41;;;;;;;;;;;;;;;6.16;96.53;99796.16;6193515;23;19936;-92
2021/06/23 21:29:49;;;;;;;;;;;;;;;6.04;96.55;99793.81;6280453;22;19923;-89
2021/06/23 21:32:32;;;;;;;;;;;;;;;;;;;;;
2021/06/23 21:35:18;;;;;;;;;;;;;;;6.13;95.63;99793.59;6284805;22;19931;-92
2021/06/23 21:37:53;;;;;;;;;;;;;;;6.07;95.72;99803.41;6283201;22;20264;-92
2021/06/23 21:40:34;;;;;;;;;;;;;;;;;;;;;
2021/06/23 21:45:47;;;;;;;;;;;;;;;6.08;95.20;99802.47;6275280;22;19920;-91
2021/06/23 21:48:20;;;;;;;;;;;;;;;6.00;95.08;99800.06;6283118;22;20507;-91
2021/06/23 21:50:56;;;;;;;;;;;;;;;6.06;95.48;99799.03;6255024;22;19926;-91
2021/06/23 21:53:21;;;;;;;;;;;;;;;6.04;94.85;99791.16;6257096;22;19977;-91
2021/06/23 21:55:57;;;;;;;;;;;;;;;5.97;95.20;99798.34;6283934;22;19915;-91
2021/06/23 21:58:33;;;;;;;;;;;;;;;;;;;;;
2021/06/23 22:21:07;;;;;;;;;;;;;;;;;;;;;
2021/06/23 22:31:26;;;;;;;;;;;;;;;6.00;95.36;99786.91;6286495;22;19911;-92
2021/06/23 22:33:56;;;;;;;;;;;;;;;5.88;95.48;99785.38;6211609;22;19986;-91
2021/06/23 22:36:44;;;;;;;;;;;;;;;5.84;95.60;99773.22;6258761;22;19915;-91
2021/06/23 22:50:01;;;;;;;;;;;;;;;5.94;94.60;99776.50;6288638;22;19977;-93
2021/06/23 22:52:47;;;;;;;;;;;;;;;5.96;95.36;99761.53;6284073;22;19915;-90
2021/06/23 22:55:15;;;;;;;;;;;;;;;5.99;94.36;99764.13;6262008;22;19915;-91
2021/06/23 22:57:44;;;;;;;;;;;;;;;5.84;95.71;99773.22;6282498;22;19915;-90
2021/06/23 23:00:10;;;;;;;;;;;;;;;5.89;95.55;99779.22;6284832;22;19925;-90
2021/06/23 23:02:46;;;;;;;;;;;;;;;5.93;95.97;99777.38;6282560;22;19923;-89
2021/06/23 23:05:11;;;;;;;;;;;;;;;5.88;95.01;99781.91;6281731;22;19915;-91
2021/06/23 23:07:40;;;;;;;;;;;;;;;5.75;95.84;99770.81;6282065;22;19915;-90
2021/06/23 23:10:07;;;;;;;;;;;;;;;5.79;96.07;99775.06;6255114;22;19931;-90
2021/06/23 23:12:35;;;;;;;;;;;;;;;6.03;95.62;99788.56;6281265;22;19922;-91
2021/06/23 23:15:03;;;;;;;;;;;;;;;5.94;93.66;99798.38;6280904;22;19915;-91
2021/06/23 23:31:15;;;;;;;;;;;;;;;;;;;;;
